sensor_id;sensor_type;location;lat;lon;timestamp;P1;durP1;ratioP1;P2;durP2;ratioP2
3939;SDS011;1984;48.312;9.244;2023-06-26T00:02:17;9.20;;;5.57;;
3939;SDS011;1984;48.312;9.244;2023-06-26T00:04:43;8.63;;;6.17;;
3939;SDS011;1984;48.312;9.244;2023-06-26T00:07:09;7.83;;;6.27;;
3939;SDS011;1984;48.312;9.244;2023-06-26T00:09:35;9.00;;;6.70;;
3939;SDS011;1984;48.312;9.244;2023-06-26T00:12:01;8.00;;;6.37;;
3939;SDS011;1984;48.312;9.244;2023-06-26T00:14:26;9.83;;;6.37;;
3939;SDS011;1984;48.312;9.244;2023-06-26T00:16:52;11.00;;;7.03;;
3939;SDS011;1984;48.312;9.244;2023-06-26T00:19:18;8.27;;;6.93;;
3939;SDS011;1984;48.312;9.244;2023-06-26T00:21:44;10.90;;;6.30;;
3939;SDS011;1984;48.312;9.244;2023-06-26T00:24:16;9.10;;;6.70;;
3939;SDS011;1984;48.312;9.244;2023-06-26T00:26:41;9.23;;;6.40;;
3939;SDS011;1984;48.312;9.244;2023-06-26T00:29:07;10.27;;;7.27;;
3939;SDS011;1984;48.312;9.244;2023-06-26T00:31:33;9.37;;;6.50;;
3939;SDS011;1984;48.312;9.244;2023-06-26T00:34:00;8.10;;;6.83;;
3939;SDS011;1984;48.312;9.244;2023-06-26T00:36:26;9.50;;;6.30;;
3939;SDS011;1984;48.312;9.244;2023-06-26T00:38:51;8.30;;;6.27;;
3939;SDS011;1984;48.312;9.244;2023-06-26T00:41:17;8.57;;;6.50;;
3939;SDS011;1984;48.312;9.244;2023-06-26T00:43:43;7.20;;;6.07;;
3939;SDS011;1984;48.312;9.244;2023-06-26T00:46:09;10.03;;;6.20;;
3939;SDS011;1984;48.312;9.244;2023-06-26T00:48:36;9.83;;;7.53;;
3939;SDS011;1984;48.312;9.244;2023-06-26T00:51:02;8.90;;;6.73;;
3939;SDS011;1984;48.312;9.244;2023-06-26T00:53:28;9.57;;;6.33;;
3939;SDS011;1984;48.312;9.244;2023-06-26T00:55:55;9.53;;;5.63;;
3939;SDS011;1984;48.312;9.244;2023-06-26T00:58:23;8.70;;;7.23;;
3939;SDS011;1984;48.312;9.244;2023-06-26T01:00:50;9.90;;;6.60;;
3939;SDS011;1984;48.312;9.244;2023-06-26T01:03:16;8.57;;;6.60;;
3939;SDS011;1984;48.312;9.244;2023-06-26T01:05:42;8.43;;;6.07;;
3939;SDS011;1984;48.312;9.244;2023-06-26T01:08:10;8.20;;;6.47;;
3939;SDS011;1984;48.312;9.244;2023-06-26T01:10:37;8.47;;;6.60;;
3939;SDS011;1984;48.312;9.244;2023-06-26T01:13:03;9.80;;;7.50;;
3939;SDS011;1984;48.312;9.244;2023-06-26T01:15:29;8.40;;;6.00;;
3939;SDS011;1984;48.312;9.244;2023-06-26T01:17:55;15.03;;;6.90;;
3939;SDS011;1984;48.312;9.244;2023-06-26T01:20:24;10.37;;;6.43;;
3939;SDS011;1984;48.312;9.244;2023-06-26T01:25:41;14.60;;;7.47;;
3939;SDS011;1984;48.312;9.244;2023-06-26T01:28:12;9.30;;;6.20;;
3939;SDS011;1984;48.312;9.244;2023-06-26T01:30:41;7.33;;;5.77;;
3939;SDS011;1984;48.312;9.244;2023-06-26T01:33:08;8.50;;;6.30;;
3939;SDS011;1984;48.312;9.244;2023-06-26T01:35:34;9.93;;;7.37;;
3939;SDS011;1984;48.312;9.244;2023-06-26T01:38:13;9.93;;;6.20;;
3939;SDS011;1984;48.312;9.244;2023-06-26T01:40:43;8.67;;;6.33;;
3939;SDS011;1984;48.312;9.244;2023-06-26T01:43:11;8.50;;;6.80;;
3939;SDS011;1984;48.312;9.244;2023-06-26T01:45:46;7.87;;;6.70;;
3939;SDS011;1984;48.312;9.244;2023-06-26T01:48:15;9.77;;;7.07;;
3939;SDS011;1984;48.312;9.244;2023-06-26T01:50:44;10.90;;;6.90;;
3939;SDS011;1984;48.312;9.244;2023-06-26T01:53:10;7.63;;;5.67;;
3939;SDS011;1984;48.312;9.244;2023-06-26T01:55:50;6.93;;;6.23;;
3939;SDS011;1984;48.312;9.244;2023-06-26T01:58:19;9.90;;;6.80;;
3939;SDS011;1984;48.312;9.244;2023-06-26T02:00:48;8.40;;;6.43;;
3939;SDS011;1984;48.312;9.244;2023-06-26T02:03:14;7.80;;;5.87;;
3939;SDS011;1984;48.312;9.244;2023-06-26T02:05:39;10.00;;;7.03;;
3939;SDS011;1984;48.312;9.244;2023-06-26T02:08:05;12.23;;;6.90;;
3939;SDS011;1984;48.312;9.244;2023-06-26T02:10:33;7.70;;;5.90;;
3939;SDS011;1984;48.312;9.244;2023-06-26T02:12:59;7.73;;;5.87;;
3939;SDS011;1984;48.312;9.244;2023-06-26T02:15:25;11.63;;;7.20;;
3939;SDS011;1984;48.312;9.244;2023-06-26T02:17:51;7.97;;;6.20;;
3939;SDS011;1984;48.312;9.244;2023-06-26T02:20:16;8.40;;;6.20;;
3939;SDS011;1984;48.312;9.244;2023-06-26T02:22:42;11.23;;;7.70;;
3939;SDS011;1984;48.312;9.244;2023-06-26T02:25:08;10.37;;;6.73;;
3939;SDS011;1984;48.312;9.244;2023-06-26T02:27:35;11.67;;;7.27;;
3939;SDS011;1984;48.312;9.244;2023-06-26T02:30:00;8.80;;;6.20;;
3939;SDS011;1984;48.312;9.244;2023-06-26T02:32:26;9.47;;;6.50;;
3939;SDS011;1984;48.312;9.244;2023-06-26T02:34:52;8.97;;;6.30;;
3939;SDS011;1984;48.312;9.244;2023-06-26T02:37:18;12.53;;;6.33;;
3939;SDS011;1984;48.312;9.244;2023-06-26T02:39:44;7.57;;;6.40;;
3939;SDS011;1984;48.312;9.244;2023-06-26T02:42:10;8.73;;;7.03;;
3939;SDS011;1984;48.312;9.244;2023-06-26T02:44:35;7.30;;;5.60;;
3939;SDS011;1984;48.312;9.244;2023-06-26T02:47:01;10.27;;;6.83;;
3939;SDS011;1984;48.312;9.244;2023-06-26T02:49:26;7.87;;;6.20;;
3939;SDS011;1984;48.312;9.244;2023-06-26T02:51:52;9.80;;;6.60;;
3939;SDS011;1984;48.312;9.244;2023-06-26T02:54:17;8.17;;;6.27;;
3939;SDS011;1984;48.312;9.244;2023-06-26T02:56:43;9.07;;;5.90;;
3939;SDS011;1984;48.312;9.244;2023-06-26T02:59:08;9.43;;;7.03;;
3939;SDS011;1984;48.312;9.244;2023-06-26T03:01:34;9.20;;;6.30;;
3939;SDS011;1984;48.312;9.244;2023-06-26T03:03:59;9.57;;;7.10;;
3939;SDS011;1984;48.312;9.244;2023-06-26T03:06:25;11.20;;;7.10;;
3939;SDS011;1984;48.312;9.244;2023-06-26T03:08:52;14.00;;;6.80;;
3939;SDS011;1984;48.312;9.244;2023-06-26T03:11:18;13.17;;;6.83;;
3939;SDS011;1984;48.312;9.244;2023-06-26T03:13:44;9.87;;;6.50;;
3939;SDS011;1984;48.312;9.244;2023-06-26T03:16:10;12.13;;;7.77;;
3939;SDS011;1984;48.312;9.244;2023-06-26T03:18:35;7.53;;;6.30;;
3939;SDS011;1984;48.312;9.244;2023-06-26T03:21:01;9.30;;;6.17;;
3939;SDS011;1984;48.312;9.244;2023-06-26T03:23:26;9.80;;;6.80;;
3939;SDS011;1984;48.312;9.244;2023-06-26T03:25:52;10.40;;;6.93;;
3939;SDS011;1984;48.312;9.244;2023-06-26T03:28:18;13.23;;;7.60;;
3939;SDS011;1984;48.312;9.244;2023-06-26T03:30:43;9.93;;;7.07;;
3939;SDS011;1984;48.312;9.244;2023-06-26T03:33:09;12.57;;;7.30;;
3939;SDS011;1984;48.312;9.244;2023-06-26T03:35:35;9.17;;;6.90;;
3939;SDS011;1984;48.312;9.244;2023-06-26T03:38:01;10.77;;;7.57;;
3939;SDS011;1984;48.312;9.244;2023-06-26T03:40:26;9.57;;;6.90;;
3939;SDS011;1984;48.312;9.244;2023-06-26T03:42:52;9.73;;;6.70;;
3939;SDS011;1984;48.312;9.244;2023-06-26T03:45:18;9.13;;;6.27;;
3939;SDS011;1984;48.312;9.244;2023-06-26T03:47:44;9.37;;;6.47;;
3939;SDS011;1984;48.312;9.244;2023-06-26T03:50:12;15.03;;;7.60;;
3939;SDS011;1984;48.312;9.244;2023-06-26T03:52:37;7.00;;;6.07;;
3939;SDS011;1984;48.312;9.244;2023-06-26T03:55:03;8.33;;;6.30;;
3939;SDS011;1984;48.312;9.244;2023-06-26T03:57:29;12.10;;;6.53;;
3939;SDS011;1984;48.312;9.244;2023-06-26T03:59:54;11.80;;;7.00;;
3939;SDS011;1984;48.312;9.244;2023-06-26T04:02:20;10.03;;;7.07;;
3939;SDS011;1984;48.312;9.244;2023-06-26T04:04:45;9.40;;;6.60;;
3939;SDS011;1984;48.312;9.244;2023-06-26T04:07:11;8.80;;;6.50;;
3939;SDS011;1984;48.312;9.244;2023-06-26T04:09:36;10.90;;;6.60;;
3939;SDS011;1984;48.312;9.244;2023-06-26T04:12:02;8.87;;;6.90;;
3939;SDS011;1984;48.312;9.244;2023-06-26T04:14:28;10.10;;;6.80;;
3939;SDS011;1984;48.312;9.244;2023-06-26T04:16:53;9.57;;;6.13;;
3939;SDS011;1984;48.312;9.244;2023-06-26T04:19:19;11.77;;;7.47;;
3939;SDS011;1984;48.312;9.244;2023-06-26T04:21:44;8.57;;;6.77;;
3939;SDS011;1984;48.312;9.244;2023-06-26T04:24:10;17.63;;;6.07;;
3939;SDS011;1984;48.312;9.244;2023-06-26T04:26:35;13.67;;;7.03;;
3939;SDS011;1984;48.312;9.244;2023-06-26T04:29:02;10.33;;;7.30;;
3939;SDS011;1984;48.312;9.244;2023-06-26T04:31:28;9.53;;;6.47;;
3939;SDS011;1984;48.312;9.244;2023-06-26T04:33:53;11.37;;;6.83;;
3939;SDS011;1984;48.312;9.244;2023-06-26T04:36:20;10.57;;;6.67;;
3939;SDS011;1984;48.312;9.244;2023-06-26T04:38:45;10.73;;;7.60;;
3939;SDS011;1984;48.312;9.244;2023-06-26T04:41:13;10.63;;;7.07;;
3939;SDS011;1984;48.312;9.244;2023-06-26T04:43:38;10.17;;;7.50;;
3939;SDS011;1984;48.312;9.244;2023-06-26T04:46:04;9.80;;;6.97;;
3939;SDS011;1984;48.312;9.244;2023-06-26T04:48:30;9.23;;;7.43;;
3939;SDS011;1984;48.312;9.244;2023-06-26T04:50:56;9.40;;;7.00;;
3939;SDS011;1984;48.312;9.244;2023-06-26T04:53:23;11.00;;;7.47;;
3939;SDS011;1984;48.312;9.244;2023-06-26T04:55:50;10.30;;;7.10;;
3939;SDS011;1984;48.312;9.244;2023-06-26T04:58:16;10.63;;;6.73;;
3939;SDS011;1984;48.312;9.244;2023-06-26T05:00:41;15.80;;;7.37;;
3939;SDS011;1984;48.312;9.244;2023-06-26T05:03:08;10.43;;;7.43;;
3939;SDS011;1984;48.312;9.244;2023-06-26T05:05:37;17.47;;;7.27;;
3939;SDS011;1984;48.312;9.244;2023-06-26T05:08:16;10.10;;;7.27;;
3939;SDS011;1984;48.312;9.244;2023-06-26T05:10:43;11.70;;;6.83;;
3939;SDS011;1984;48.312;9.244;2023-06-26T05:13:09;10.50;;;7.40;;
3939;SDS011;1984;48.312;9.244;2023-06-26T05:15:35;10.40;;;7.67;;
3939;SDS011;1984;48.312;9.244;2023-06-26T05:18:00;11.73;;;7.83;;
3939;SDS011;1984;48.312;9.244;2023-06-26T05:20:26;10.63;;;7.30;;
3939;SDS011;1984;48.312;9.244;2023-06-26T05:22:51;10.97;;;7.67;;
3939;SDS011;1984;48.312;9.244;2023-06-26T05:25:18;13.60;;;8.57;;
3939;SDS011;1984;48.312;9.244;2023-06-26T05:27:46;10.63;;;7.43;;
3939;SDS011;1984;48.312;9.244;2023-06-26T05:30:12;10.80;;;7.30;;
3939;SDS011;1984;48.312;9.244;2023-06-26T05:32:38;10.57;;;7.40;;
3939;SDS011;1984;48.312;9.244;2023-06-26T05:35:05;11.40;;;8.03;;
3939;SDS011;1984;48.312;9.244;2023-06-26T05:37:32;13.80;;;7.37;;
3939;SDS011;1984;48.312;9.244;2023-06-26T05:39:59;10.17;;;7.90;;
3939;SDS011;1984;48.312;9.244;2023-06-26T05:42:26;14.40;;;7.87;;
3939;SDS011;1984;48.312;9.244;2023-06-26T05:44:53;9.87;;;6.80;;
3939;SDS011;1984;48.312;9.244;2023-06-26T05:47:19;10.23;;;7.90;;
3939;SDS011;1984;48.312;9.244;2023-06-26T05:49:44;10.90;;;7.60;;
3939;SDS011;1984;48.312;9.244;2023-06-26T05:52:10;11.70;;;7.90;;
3939;SDS011;1984;48.312;9.244;2023-06-26T05:54:36;9.30;;;6.70;;
3939;SDS011;1984;48.312;9.244;2023-06-26T05:57:02;15.80;;;7.30;;
3939;SDS011;1984;48.312;9.244;2023-06-26T05:59:28;12.30;;;7.10;;
3939;SDS011;1984;48.312;9.244;2023-06-26T06:01:56;10.53;;;6.60;;
3939;SDS011;1984;48.312;9.244;2023-06-26T06:04:21;7.93;;;6.70;;
3939;SDS011;1984;48.312;9.244;2023-06-26T06:06:47;10.10;;;6.77;;
3939;SDS011;1984;48.312;9.244;2023-06-26T06:09:12;9.83;;;7.07;;
3939;SDS011;1984;48.312;9.244;2023-06-26T06:11:38;9.60;;;6.97;;
3939;SDS011;1984;48.312;9.244;2023-06-26T06:14:11;11.13;;;7.57;;
3939;SDS011;1984;48.312;9.244;2023-06-26T06:16:36;12.73;;;7.37;;
3939;SDS011;1984;48.312;9.244;2023-06-26T06:19:02;9.83;;;6.70;;
3939;SDS011;1984;48.312;9.244;2023-06-26T06:21:29;7.10;;;6.30;;
3939;SDS011;1984;48.312;9.244;2023-06-26T06:23:55;8.80;;;6.50;;
3939;SDS011;1984;48.312;9.244;2023-06-26T06:26:20;8.90;;;6.40;;
3939;SDS011;1984;48.312;9.244;2023-06-26T06:28:46;10.30;;;7.17;;
3939;SDS011;1984;48.312;9.244;2023-06-26T06:31:11;10.20;;;6.47;;
3939;SDS011;1984;48.312;9.244;2023-06-26T06:33:37;9.97;;;7.10;;
3939;SDS011;1984;48.312;9.244;2023-06-26T06:36:02;9.70;;;6.60;;
3939;SDS011;1984;48.312;9.244;2023-06-26T06:38:28;6.93;;;5.47;;
3939;SDS011;1984;48.312;9.244;2023-06-26T06:40:54;22.73;;;6.33;;
3939;SDS011;1984;48.312;9.244;2023-06-26T06:43:19;7.73;;;6.00;;
3939;SDS011;1984;48.312;9.244;2023-06-26T06:45:45;9.83;;;5.87;;
3939;SDS011;1984;48.312;9.244;2023-06-26T06:48:10;7.50;;;5.90;;
3939;SDS011;1984;48.312;9.244;2023-06-26T06:50:36;8.60;;;6.47;;
3939;SDS011;1984;48.312;9.244;2023-06-26T06:53:01;10.10;;;5.90;;
3939;SDS011;1984;48.312;9.244;2023-06-26T06:55:27;7.70;;;5.93;;
3939;SDS011;1984;48.312;9.244;2023-06-26T06:57:52;5.73;;;5.07;;
3939;SDS011;1984;48.312;9.244;2023-06-26T07:00:18;9.27;;;6.20;;
3939;SDS011;1984;48.312;9.244;2023-06-26T07:02:44;8.47;;;5.70;;
3939;SDS011;1984;48.312;9.244;2023-06-26T07:05:12;8.30;;;6.07;;
3939;SDS011;1984;48.312;9.244;2023-06-26T07:07:38;12.30;;;5.97;;
3939;SDS011;1984;48.312;9.244;2023-06-26T07:10:04;6.80;;;5.33;;
3939;SDS011;1984;48.312;9.244;2023-06-26T07:12:35;4.77;;;4.20;;
3939;SDS011;1984;48.312;9.244;2023-06-26T07:15:02;4.97;;;4.50;;
3939;SDS011;1984;48.312;9.244;2023-06-26T07:17:29;7.37;;;4.50;;
3939;SDS011;1984;48.312;9.244;2023-06-26T07:19:55;4.97;;;4.20;;
3939;SDS011;1984;48.312;9.244;2023-06-26T07:22:21;4.90;;;4.13;;
3939;SDS011;1984;48.312;9.244;2023-06-26T07:24:47;4.10;;;3.63;;
3939;SDS011;1984;48.312;9.244;2023-06-26T07:27:16;5.23;;;3.47;;
3939;SDS011;1984;48.312;9.244;2023-06-26T07:29:43;3.87;;;3.43;;
3939;SDS011;1984;48.312;9.244;2023-06-26T07:32:09;4.60;;;3.87;;
3939;SDS011;1984;48.312;9.244;2023-06-26T07:34:35;3.80;;;3.50;;
3939;SDS011;1984;48.312;9.244;2023-06-26T07:37:01;4.63;;;3.80;;
3939;SDS011;1984;48.312;9.244;2023-06-26T07:39:26;4.33;;;3.97;;
3939;SDS011;1984;48.312;9.244;2023-06-26T07:41:52;9.63;;;3.80;;
3939;SDS011;1984;48.312;9.244;2023-06-26T07:44:18;4.68;;;4.22;;
3939;SDS011;1984;48.312;9.244;2023-06-26T07:46:44;5.30;;;4.17;;
3939;SDS011;1984;48.312;9.244;2023-06-26T07:49:09;4.18;;;3.83;;
3939;SDS011;1984;48.312;9.244;2023-06-26T07:51:35;9.40;;;3.90;;
3939;SDS011;1984;48.312;9.244;2023-06-26T07:54:01;3.80;;;3.50;;
3939;SDS011;1984;48.312;9.244;2023-06-26T07:56:27;4.40;;;3.85;;
3939;SDS011;1984;48.312;9.244;2023-06-26T07:58:52;4.38;;;4.07;;
3939;SDS011;1984;48.312;9.244;2023-06-26T08:01:18;3.40;;;3.10;;
3939;SDS011;1984;48.312;9.244;2023-06-26T08:03:43;6.00;;;3.40;;
3939;SDS011;1984;48.312;9.244;2023-06-26T08:06:09;4.00;;;3.65;;
3939;SDS011;1984;48.312;9.244;2023-06-26T08:08:34;4.28;;;3.97;;
3939;SDS011;1984;48.312;9.244;2023-06-26T08:11:00;4.40;;;4.00;;
3939;SDS011;1984;48.312;9.244;2023-06-26T08:13:25;4.57;;;3.93;;
3939;SDS011;1984;48.312;9.244;2023-06-26T08:15:51;4.23;;;3.83;;
3939;SDS011;1984;48.312;9.244;2023-06-26T08:18:17;5.43;;;3.97;;
3939;SDS011;1984;48.312;9.244;2023-06-26T08:20:43;4.20;;;3.85;;
3939;SDS011;1984;48.312;9.244;2023-06-26T08:23:08;10.00;;;4.07;;
3939;SDS011;1984;48.312;9.244;2023-06-26T08:25:34;4.95;;;3.53;;
3939;SDS011;1984;48.312;9.244;2023-06-26T08:27:59;6.78;;;3.95;;
3939;SDS011;1984;48.312;9.244;2023-06-26T08:30:25;3.92;;;3.50;;
3939;SDS011;1984;48.312;9.244;2023-06-26T08:32:53;4.68;;;3.72;;
3939;SDS011;1984;48.312;9.244;2023-06-26T08:35:20;4.20;;;3.45;;
3939;SDS011;1984;48.312;9.244;2023-06-26T08:37:45;3.72;;;3.42;;
3939;SDS011;1984;48.312;9.244;2023-06-26T08:40:11;5.07;;;3.90;;
3939;SDS011;1984;48.312;9.244;2023-06-26T08:42:38;6.85;;;3.33;;
3939;SDS011;1984;48.312;9.244;2023-06-26T08:45:03;10.35;;;4.05;;
3939;SDS011;1984;48.312;9.244;2023-06-26T08:47:29;4.68;;;3.08;;
3939;SDS011;1984;48.312;9.244;2023-06-26T08:50:10;4.45;;;4.05;;
3939;SDS011;1984;48.312;9.244;2023-06-26T08:55:13;3.78;;;3.42;;
3939;SDS011;1984;48.312;9.244;2023-06-26T08:57:41;3.90;;;3.60;;
3939;SDS011;1984;48.312;9.244;2023-06-26T09:00:07;8.02;;;3.85;;
3939;SDS011;1984;48.312;9.244;2023-06-26T09:02:33;4.13;;;3.72;;
3939;SDS011;1984;48.312;9.244;2023-06-26T09:05:01;4.07;;;3.67;;
3939;SDS011;1984;48.312;9.244;2023-06-26T09:07:28;3.65;;;3.35;;
3939;SDS011;1984;48.312;9.244;2023-06-26T09:09:53;12.77;;;3.60;;
3939;SDS011;1984;48.312;9.244;2023-06-26T09:12:19;3.95;;;3.65;;
3939;SDS011;1984;48.312;9.244;2023-06-26T09:14:45;7.75;;;3.70;;
3939;SDS011;1984;48.312;9.244;2023-06-26T09:17:12;3.88;;;3.55;;
3939;SDS011;1984;48.312;9.244;2023-06-26T09:19:38;4.18;;;3.70;;
3939;SDS011;1984;48.312;9.244;2023-06-26T09:22:03;4.20;;;3.80;;
3939;SDS011;1984;48.312;9.244;2023-06-26T09:24:29;5.18;;;3.83;;
3939;SDS011;1984;48.312;9.244;2023-06-26T09:26:55;7.18;;;3.88;;
3939;SDS011;1984;48.312;9.244;2023-06-26T09:29:21;5.07;;;3.92;;
3939;SDS011;1984;48.312;9.244;2023-06-26T09:31:46;3.83;;;3.38;;
3939;SDS011;1984;48.312;9.244;2023-06-26T09:34:12;4.85;;;3.70;;
3939;SDS011;1984;48.312;9.244;2023-06-26T09:36:38;4.40;;;4.00;;
3939;SDS011;1984;48.312;9.244;2023-06-26T09:39:05;9.15;;;4.82;;
3939;SDS011;1984;48.312;9.244;2023-06-26T09:41:35;6.53;;;3.90;;
3939;SDS011;1984;48.312;9.244;2023-06-26T09:44:02;6.63;;;5.45;;
3939;SDS011;1984;48.312;9.244;2023-06-26T09:46:29;6.72;;;4.80;;
3939;SDS011;1984;48.312;9.244;2023-06-26T09:51:29;6.13;;;3.70;;
3939;SDS011;1984;48.312;9.244;2023-06-26T09:53:59;3.92;;;3.63;;
3939;SDS011;1984;48.312;9.244;2023-06-26T09:56:25;3.80;;;3.50;;
3939;SDS011;1984;48.312;9.244;2023-06-26T09:58:55;4.38;;;3.80;;
3939;SDS011;1984;48.312;9.244;2023-06-26T10:01:22;4.72;;;4.00;;
3939;SDS011;1984;48.312;9.244;2023-06-26T10:03:48;6.50;;;4.47;;
3939;SDS011;1984;48.312;9.244;2023-06-26T10:06:14;6.05;;;4.38;;
3939;SDS011;1984;48.312;9.244;2023-06-26T10:08:42;4.05;;;3.72;;
3939;SDS011;1984;48.312;9.244;2023-06-26T10:11:09;7.80;;;3.92;;
3939;SDS011;1984;48.312;9.244;2023-06-26T10:13:45;8.65;;;3.92;;
3939;SDS011;1984;48.312;9.244;2023-06-26T10:16:16;8.75;;;3.90;;
3939;SDS011;1984;48.312;9.244;2023-06-26T10:18:49;4.15;;;3.75;;
3939;SDS011;1984;48.312;9.244;2023-06-26T10:21:18;4.35;;;3.95;;
3939;SDS011;1984;48.312;9.244;2023-06-26T10:23:47;4.63;;;4.22;;
3939;SDS011;1984;48.312;9.244;2023-06-26T10:26:13;4.30;;;3.90;;
3939;SDS011;1984;48.312;9.244;2023-06-26T10:28:39;6.10;;;3.95;;
3939;SDS011;1984;48.312;9.244;2023-06-26T10:31:06;5.03;;;4.13;;
3939;SDS011;1984;48.312;9.244;2023-06-26T10:33:34;4.45;;;4.10;;
3939;SDS011;1984;48.312;9.244;2023-06-26T10:36:21;4.45;;;4.05;;
3939;SDS011;1984;48.312;9.244;2023-06-26T10:39:11;4.22;;;3.83;;
3939;SDS011;1984;48.312;9.244;2023-06-26T10:41:38;6.75;;;4.13;;
3939;SDS011;1984;48.312;9.244;2023-06-26T10:46:53;5.32;;;4.72;;
3939;SDS011;1984;48.312;9.244;2023-06-26T10:49:21;4.43;;;4.03;;
3939;SDS011;1984;48.312;9.244;2023-06-26T10:51:50;5.60;;;4.50;;
3939;SDS011;1984;48.312;9.244;2023-06-26T10:54:17;4.47;;;4.03;;
3939;SDS011;1984;48.312;9.244;2023-06-26T10:56:45;6.90;;;4.40;;
3939;SDS011;1984;48.312;9.244;2023-06-26T10:59:19;6.45;;;4.50;;
3939;SDS011;1984;48.312;9.244;2023-06-26T11:01:46;5.35;;;4.22;;
3939;SDS011;1984;48.312;9.244;2023-06-26T11:07:25;9.45;;;4.60;;
3939;SDS011;1984;48.312;9.244;2023-06-26T11:09:58;5.63;;;4.10;;
3939;SDS011;1984;48.312;9.244;2023-06-26T11:12:39;4.30;;;3.90;;
3939;SDS011;1984;48.312;9.244;2023-06-26T11:15:16;6.38;;;4.50;;
3939;SDS011;1984;48.312;9.244;2023-06-26T11:17:43;5.43;;;4.53;;
3939;SDS011;1984;48.312;9.244;2023-06-26T11:20:10;6.15;;;4.82;;
3939;SDS011;1984;48.312;9.244;2023-06-26T11:22:37;6.47;;;5.00;;
3939;SDS011;1984;48.312;9.244;2023-06-26T11:25:04;5.57;;;4.88;;
3939;SDS011;1984;48.312;9.244;2023-06-26T11:30:06;6.25;;;4.82;;
3939;SDS011;1984;48.312;9.244;2023-06-26T11:32:32;7.60;;;5.30;;
3939;SDS011;1984;48.312;9.244;2023-06-26T11:35:01;5.33;;;4.83;;
3939;SDS011;1984;48.312;9.244;2023-06-26T11:37:27;6.67;;;5.17;;
3939;SDS011;1984;48.312;9.244;2023-06-26T11:39:52;6.10;;;5.50;;
3939;SDS011;1984;48.312;9.244;2023-06-26T11:42:18;6.90;;;4.90;;
3939;SDS011;1984;48.312;9.244;2023-06-26T11:44:45;6.30;;;4.65;;
3939;SDS011;1984;48.312;9.244;2023-06-26T11:47:17;9.13;;;4.90;;
3939;SDS011;1984;48.312;9.244;2023-06-26T11:49:45;7.40;;;5.03;;
3939;SDS011;1984;48.312;9.244;2023-06-26T11:52:12;6.87;;;5.83;;
3939;SDS011;1984;48.312;9.244;2023-06-26T11:54:38;7.00;;;5.60;;
3939;SDS011;1984;48.312;9.244;2023-06-26T11:57:04;6.37;;;5.20;;
3939;SDS011;1984;48.312;9.244;2023-06-26T11:59:33;11.93;;;5.70;;
3939;SDS011;1984;48.312;9.244;2023-06-26T12:02:01;5.87;;;5.20;;
3939;SDS011;1984;48.312;9.244;2023-06-26T12:04:33;13.93;;;7.60;;
3939;SDS011;1984;48.312;9.244;2023-06-26T12:07:02;9.70;;;5.80;;
3939;SDS011;1984;48.312;9.244;2023-06-26T12:09:30;6.27;;;5.67;;
3939;SDS011;1984;48.312;9.244;2023-06-26T12:11:58;6.30;;;5.70;;
3939;SDS011;1984;48.312;9.244;2023-06-26T12:14:24;8.67;;;5.60;;
3939;SDS011;1984;48.312;9.244;2023-06-26T12:16:53;6.73;;;6.13;;
3939;SDS011;1984;48.312;9.244;2023-06-26T12:19:23;6.33;;;5.63;;
3939;SDS011;1984;48.312;9.244;2023-06-26T12:21:50;6.20;;;5.60;;
3939;SDS011;1984;48.312;9.244;2023-06-26T12:24:18;8.83;;;5.83;;
3939;SDS011;1984;48.312;9.244;2023-06-26T12:26:46;8.43;;;5.90;;
3939;SDS011;1984;48.312;9.244;2023-06-26T12:29:15;7.57;;;5.27;;
3939;SDS011;1984;48.312;9.244;2023-06-26T12:31:49;6.20;;;5.50;;
3939;SDS011;1984;48.312;9.244;2023-06-26T12:34:26;13.13;;;5.67;;
3939;SDS011;1984;48.312;9.244;2023-06-26T12:37:04;7.90;;;5.57;;
3939;SDS011;1984;48.312;9.244;2023-06-26T12:39:50;7.60;;;5.50;;
3939;SDS011;1984;48.312;9.244;2023-06-26T12:42:18;6.03;;;5.47;;
3939;SDS011;1984;48.312;9.244;2023-06-26T12:44:45;7.77;;;5.50;;
3939;SDS011;1984;48.312;9.244;2023-06-26T12:47:11;14.70;;;6.50;;
3939;SDS011;1984;48.312;9.244;2023-06-26T12:49:40;7.37;;;5.53;;
3939;SDS011;1984;48.312;9.244;2023-06-26T12:52:07;6.77;;;4.60;;
3939;SDS011;1984;48.312;9.244;2023-06-26T12:54:34;5.20;;;4.70;;
3939;SDS011;1984;48.312;9.244;2023-06-26T12:57:01;9.23;;;6.07;;
3939;SDS011;1984;48.312;9.244;2023-06-26T12:59:29;5.80;;;5.30;;
3939;SDS011;1984;48.312;9.244;2023-06-26T13:01:58;5.80;;;5.30;;
3939;SDS011;1984;48.312;9.244;2023-06-26T13:04:24;9.40;;;5.20;;
3939;SDS011;1984;48.312;9.244;2023-06-26T13:06:49;11.03;;;5.90;;
3939;SDS011;1984;48.312;9.244;2023-06-26T13:09:15;6.00;;;5.40;;
3939;SDS011;1984;48.312;9.244;2023-06-26T13:11:42;8.97;;;5.70;;
3939;SDS011;1984;48.312;9.244;2023-06-26T13:14:07;9.13;;;5.83;;
3939;SDS011;1984;48.312;9.244;2023-06-26T13:16:33;5.90;;;5.40;;
3939;SDS011;1984;48.312;9.244;2023-06-26T13:18:59;6.93;;;6.10;;
3939;SDS011;1984;48.312;9.244;2023-06-26T13:21:26;10.57;;;5.47;;
3939;SDS011;1984;48.312;9.244;2023-06-26T13:23:52;8.10;;;5.90;;
3939;SDS011;1984;48.312;9.244;2023-06-26T13:26:18;7.90;;;6.70;;
3939;SDS011;1984;48.312;9.244;2023-06-26T13:28:44;8.33;;;6.17;;
3939;SDS011;1984;48.312;9.244;2023-06-26T13:31:10;14.13;;;6.43;;
3939;SDS011;1984;48.312;9.244;2023-06-26T13:33:35;7.60;;;5.93;;
3939;SDS011;1984;48.312;9.244;2023-06-26T13:36:01;10.93;;;5.33;;
3939;SDS011;1984;48.312;9.244;2023-06-26T13:38:29;7.80;;;7.00;;
3939;SDS011;1984;48.312;9.244;2023-06-26T13:40:55;6.60;;;5.90;;
3939;SDS011;1984;48.312;9.244;2023-06-26T13:43:22;6.97;;;6.27;;
3939;SDS011;1984;48.312;9.244;2023-06-26T13:45:51;6.03;;;5.43;;
3939;SDS011;1984;48.312;9.244;2023-06-26T13:48:16;6.23;;;5.73;;
3939;SDS011;1984;48.312;9.244;2023-06-26T13:50:42;8.33;;;6.57;;
3939;SDS011;1984;48.312;9.244;2023-06-26T13:53:08;9.90;;;5.60;;
3939;SDS011;1984;48.312;9.244;2023-06-26T13:55:34;6.83;;;5.53;;
3939;SDS011;1984;48.312;9.244;2023-06-26T13:58:00;7.87;;;6.17;;
3939;SDS011;1984;48.312;9.244;2023-06-26T14:00:30;13.73;;;6.40;;
3939;SDS011;1984;48.312;9.244;2023-06-26T14:02:58;8.90;;;5.37;;
3939;SDS011;1984;48.312;9.244;2023-06-26T14:05:28;10.47;;;6.33;;
3939;SDS011;1984;48.312;9.244;2023-06-26T14:07:54;11.00;;;6.50;;
3939;SDS011;1984;48.312;9.244;2023-06-26T14:10:23;10.30;;;6.63;;
3939;SDS011;1984;48.312;9.244;2023-06-26T14:12:49;7.13;;;5.80;;
3939;SDS011;1984;48.312;9.244;2023-06-26T14:15:14;10.23;;;5.90;;
3939;SDS011;1984;48.312;9.244;2023-06-26T14:17:40;6.93;;;5.93;;
3939;SDS011;1984;48.312;9.244;2023-06-26T14:20:06;7.13;;;5.97;;
3939;SDS011;1984;48.312;9.244;2023-06-26T14:22:37;6.83;;;5.83;;
3939;SDS011;1984;48.312;9.244;2023-06-26T14:25:06;13.43;;;7.00;;
3939;SDS011;1984;48.312;9.244;2023-06-26T14:27:33;5.90;;;5.40;;
3939;SDS011;1984;48.312;9.244;2023-06-26T14:29:59;7.27;;;6.27;;
3939;SDS011;1984;48.312;9.244;2023-06-26T14:32:24;6.87;;;5.37;;
3939;SDS011;1984;48.312;9.244;2023-06-26T14:34:50;10.37;;;5.70;;
3939;SDS011;1984;48.312;9.244;2023-06-26T14:37:15;8.37;;;6.17;;
3939;SDS011;1984;48.312;9.244;2023-06-26T14:39:43;12.70;;;5.90;;
3939;SDS011;1984;48.312;9.244;2023-06-26T14:42:09;9.23;;;5.47;;
3939;SDS011;1984;48.312;9.244;2023-06-26T14:44:35;8.57;;;5.97;;
3939;SDS011;1984;48.312;9.244;2023-06-26T14:47:00;6.43;;;5.57;;
3939;SDS011;1984;48.312;9.244;2023-06-26T14:49:26;7.13;;;5.60;;
3939;SDS011;1984;48.312;9.244;2023-06-26T14:51:52;6.90;;;5.80;;
3939;SDS011;1984;48.312;9.244;2023-06-26T14:54:17;6.80;;;5.67;;
3939;SDS011;1984;48.312;9.244;2023-06-26T14:56:43;9.20;;;5.90;;
3939;SDS011;1984;48.312;9.244;2023-06-26T14:59:10;9.80;;;5.30;;
3939;SDS011;1984;48.312;9.244;2023-06-26T15:01:36;10.47;;;5.77;;
3939;SDS011;1984;48.312;9.244;2023-06-26T15:04:01;12.00;;;5.60;;
3939;SDS011;1984;48.312;9.244;2023-06-26T15:06:27;6.87;;;5.60;;
3939;SDS011;1984;48.312;9.244;2023-06-26T15:08:53;6.07;;;5.57;;
3939;SDS011;1984;48.312;9.244;2023-06-26T15:11:18;8.37;;;5.67;;
3939;SDS011;1984;48.312;9.244;2023-06-26T15:13:44;17.43;;;5.47;;
3939;SDS011;1984;48.312;9.244;2023-06-26T15:16:09;7.10;;;5.57;;
3939;SDS011;1984;48.312;9.244;2023-06-26T15:18:35;6.50;;;5.80;;
3939;SDS011;1984;48.312;9.244;2023-06-26T15:21:00;7.40;;;5.87;;
3939;SDS011;1984;48.312;9.244;2023-06-26T15:23:27;9.70;;;5.70;;
3939;SDS011;1984;48.312;9.244;2023-06-26T15:25:53;6.90;;;5.80;;
3939;SDS011;1984;48.312;9.244;2023-06-26T15:28:19;10.40;;;6.17;;